createdAt,value
2019-05-29T00:00:32.260Z,22.59
2019-05-29T00:05:36.014Z,22.58
2019-05-29T00:10:39.633Z,22.59
2019-05-29T00:15:43.386Z,22.56
2019-05-29T00:20:47.096Z,22.59
2019-05-29T00:25:50.823Z,22.62
2019-05-29T00:30:54.681Z,22.60
2019-05-29T00:35:58.394Z,22.62
2019-05-29T00:41:02.089Z,22.63
2019-05-29T00:46:07.238Z,22.59
2019-05-29T00:51:11.102Z,22.56
2019-05-29T00:56:14.904Z,22.49
2019-05-29T01:01:20.093Z,22.49
2019-05-29T01:06:23.888Z,22.45
2019-05-29T01:11:27.580Z,22.43
2019-05-29T01:16:31.406Z,22.44
2019-05-29T01:21:36.509Z,22.41
2019-05-29T01:26:40.187Z,22.42
2019-05-29T01:31:44.061Z,22.40
2019-05-29T01:36:47.725Z,22.39
2019-05-29T01:41:51.328Z,22.45
2019-05-29T01:46:55.127Z,22.46
2019-05-29T01:51:58.840Z,22.47
2019-05-29T01:57:02.538Z,22.48
2019-05-29T02:02:06.738Z,22.49
2019-05-29T02:07:10.439Z,22.43
2019-05-29T02:12:14.305Z,22.38
2019-05-29T02:17:19.600Z,22.33
2019-05-29T02:22:23.467Z,22.29
2019-05-29T02:27:27.728Z,22.20
2019-05-29T02:32:32.333Z,22.24
2019-05-29T02:37:36.166Z,22.24
2019-05-29T02:42:39.892Z,22.22
2019-05-29T02:47:43.910Z,22.27
2019-05-29T02:52:47.627Z,22.25
2019-05-29T02:57:51.356Z,22.24
2019-05-29T03:02:55.160Z,22.19
2019-05-29T03:07:59.001Z,22.21
2019-05-29T03:13:03.029Z,22.27
2019-05-29T03:18:06.959Z,22.27
2019-05-29T03:23:10.575Z,22.28
2019-05-29T03:28:14.292Z,22.22
2019-05-29T03:33:18.238Z,22.16
2019-05-29T03:38:21.838Z,22.09
2019-05-29T03:43:26.140Z,22.09
2019-05-29T03:48:32.209Z,22.07
2019-05-29T03:53:37.953Z,22.12
2019-05-29T03:58:41.122Z,22.15
2019-05-29T04:03:44.894Z,22.22
2019-05-29T04:08:48.710Z,22.21
2019-05-29T04:13:52.325Z,22.03
2019-05-29T04:18:57.651Z,22.01
2019-05-29T04:24:03.978Z,22.16
2019-05-29T04:29:07.524Z,22.20
2019-05-29T04:34:11.462Z,22.25
2019-05-29T04:39:15.168Z,22.12
2019-05-29T04:44:18.914Z,22.22
2019-05-29T04:49:22.851Z,22.29
2019-05-29T04:54:26.637Z,22.35
2019-05-29T04:59:30.878Z,22.27
2019-05-29T05:04:35.207Z,22.29
2019-05-29T05:09:39.606Z,22.25
2019-05-29T05:14:43.487Z,22.23
2019-05-29T05:19:47.513Z,22.32
2019-05-29T05:24:51.251Z,22.41
2019-05-29T05:29:54.954Z,22.40
2019-05-29T05:34:58.757Z,22.58
2019-05-29T05:40:02.317Z,22.70
2019-05-29T05:45:08.909Z,22.84
2019-05-29T05:50:13.098Z,22.88
2019-05-29T05:55:16.994Z,22.96
2019-05-29T06:00:33.976Z,23.05
2019-05-29T06:05:38.250Z,23.10
2019-05-29T06:10:42.428Z,22.97
2019-05-29T06:15:46.262Z,23.06
2019-05-29T06:20:50.190Z,23.22
2019-05-29T06:25:53.911Z,23.29
2019-05-29T06:30:57.526Z,23.32
2019-05-29T06:36:01.253Z,23.30
2019-05-29T06:41:05.306Z,23.31
2019-05-29T06:46:08.996Z,23.40
2019-05-29T06:51:12.826Z,23.43
2019-05-29T06:56:17.114Z,23.44
2019-05-29T07:01:21.202Z,23.47
2019-05-29T07:06:25.007Z,23.61
2019-05-29T07:11:28.727Z,23.70
2019-05-29T07:16:43.795Z,23.70
2019-05-29T07:21:38.818Z,23.71
2019-05-29T07:26:43.437Z,23.74
2019-05-29T07:31:47.404Z,23.79
2019-05-29T07:36:51.114Z,23.68
2019-05-29T07:41:54.945Z,23.73
2019-05-29T07:46:58.906Z,23.72
2019-05-29T07:52:02.512Z,23.80
2019-05-29T07:57:06.314Z,23.81
2019-05-29T08:02:10.036Z,23.84
2019-05-29T08:07:13.653Z,23.86
2019-05-29T08:12:17.494Z,23.90
2019-05-29T08:17:21.197Z,23.94
2019-05-29T08:22:34.365Z,23.81
2019-05-29T08:27:30.376Z,23.72
2019-05-29T08:32:34.123Z,23.80
2019-05-29T08:37:37.928Z,23.77
2019-05-29T08:42:43.182Z,23.80
2019-05-29T08:47:47.749Z,23.67
2019-05-29T08:52:52.321Z,23.75
2019-05-29T08:57:56.697Z,23.77
2019-05-29T09:03:00.523Z,23.77
2019-05-29T09:08:04.833Z,23.76
2019-05-29T09:13:08.472Z,23.68
2019-05-29T09:18:12.990Z,23.69
2019-05-29T09:23:16.956Z,23.67
2019-05-29T09:28:20.863Z,23.64
2019-05-29T09:33:24.893Z,23.61
2019-05-29T09:38:28.612Z,23.59
2019-05-29T09:43:32.332Z,23.63
2019-05-29T09:48:48.822Z,23.62
2019-05-29T09:53:41.325Z,23.58
2019-05-29T10:01:24.051Z,23.50
2019-05-29T10:06:23.374Z,23.44
2019-05-29T10:11:26.992Z,23.51
2019-05-29T10:16:30.721Z,23.64
2019-05-29T10:21:40.734Z,23.56
2019-05-29T10:26:40.168Z,23.81
2019-05-29T10:31:46.838Z,23.65
2019-05-29T10:36:51.911Z,23.74
2019-05-29T10:41:54.957Z,23.77
2019-05-29T10:46:58.674Z,23.72
2019-05-29T10:52:14.507Z,23.59
2019-05-29T10:57:07.707Z,23.57
2019-05-29T11:02:11.391Z,23.60
2019-05-29T11:07:15.202Z,23.58
2019-05-29T11:12:18.992Z,23.54
2019-05-29T11:17:22.737Z,23.47
2019-05-29T11:22:27.965Z,23.50
2019-05-29T11:27:31.726Z,23.49
2019-05-29T11:32:35.445Z,23.41
2019-05-29T11:37:39.362Z,23.40
2019-05-29T11:42:43.006Z,23.18
2019-05-29T11:47:46.917Z,23.23
2019-05-29T11:52:52.358Z,23.21
2019-05-29T11:57:56.004Z,23.26
2019-05-29T12:02:59.724Z,23.25
2019-05-29T12:08:03.534Z,23.24
2019-05-29T12:13:07.119Z,23.25
2019-05-29T12:18:23.194Z,23.26
2019-05-29T12:23:25.562Z,23.25
2019-05-29T12:28:22.283Z,23.27
2019-05-29T12:33:26.040Z,23.25
2019-05-29T12:38:29.696Z,23.21
2019-05-29T12:43:33.467Z,23.21
2019-05-29T12:48:37.598Z,23.25
2019-05-29T12:53:41.302Z,23.24
2019-05-29T12:58:45.003Z,23.18
2019-05-29T13:03:48.556Z,23.25
2019-05-29T13:08:52.223Z,23.28
2019-05-29T13:13:56.288Z,23.12
2019-05-29T13:19:01.037Z,23.25
2019-05-29T13:24:10.877Z,23.32
2019-05-29T13:29:10.842Z,23.33
2019-05-29T13:34:14.323Z,23.37
2019-05-29T13:39:18.098Z,23.34
2019-05-29T13:44:21.803Z,23.44
2019-05-29T13:49:25.526Z,23.45
2019-05-29T13:54:28.999Z,23.43
2019-05-29T13:59:32.569Z,23.46
2019-05-29T14:04:36.276Z,23.46
2019-05-29T14:09:39.757Z,23.45
2019-05-29T14:14:43.526Z,23.54
2019-05-29T14:19:47.235Z,23.62
2019-05-29T14:24:51.061Z,23.67
2019-05-29T14:29:54.699Z,23.67
2019-05-29T14:34:58.372Z,23.67
2019-05-29T14:40:02.027Z,23.65
2019-05-29T14:45:08.253Z,23.64
2019-05-29T14:50:13.336Z,23.70
2019-05-29T14:55:18.636Z,23.58
2019-05-29T15:00:25.492Z,23.73
2019-05-29T15:05:27.645Z,23.84
2019-05-29T15:10:32.820Z,24.05
2019-05-29T15:15:36.348Z,24.05
2019-05-29T15:20:40.071Z,24.10
2019-05-29T15:25:43.719Z,24.20
2019-05-29T15:34:29.222Z,24.20
2019-05-29T15:39:32.849Z,24.16
2019-05-29T15:44:36.407Z,24.28
2019-05-29T15:49:40.173Z,24.19
2019-05-29T15:54:43.793Z,23.91
2019-05-29T15:59:47.343Z,23.88
2019-05-29T16:04:51.038Z,23.89
2019-05-29T16:09:55.231Z,23.89
2019-05-29T16:14:58.991Z,23.85
2019-05-29T16:20:02.777Z,23.89
2019-05-29T16:25:07.728Z,23.90
2019-05-29T16:30:13.456Z,23.83
2019-05-29T16:35:19.542Z,23.64
2019-05-29T16:40:24.036Z,23.64
2019-05-29T16:45:27.669Z,23.77
2019-05-29T16:50:31.375Z,23.72
2019-05-29T16:55:34.949Z,23.77
2019-05-29T17:00:38.613Z,23.79
2019-05-29T17:05:42.430Z,23.74
2019-05-29T17:10:46.151Z,23.74
2019-05-29T17:15:49.857Z,23.68
2019-05-29T17:20:53.550Z,23.56
2019-05-29T17:26:10.148Z,23.54
2019-05-29T17:31:02.658Z,23.45
2019-05-29T17:36:06.295Z,23.42
2019-05-29T17:41:10.115Z,23.35
2019-05-29T17:46:13.847Z,23.32
2019-05-29T17:51:17.665Z,23.32
2019-05-29T17:56:29.634Z,23.31
2019-05-29T18:01:30.534Z,23.33
2019-05-29T18:06:32.260Z,23.42
2019-05-29T18:11:36.134Z,23.48
2019-05-29T18:16:39.805Z,23.45
2019-05-29T18:21:43.681Z,23.47
2019-05-29T18:26:47.624Z,23.42
2019-05-29T18:31:51.298Z,23.43
2019-05-29T18:36:55.044Z,23.39
2019-05-29T18:41:58.706Z,23.43
2019-05-29T18:47:02.389Z,23.39
2019-05-29T18:52:06.202Z,23.40
2019-05-29T18:57:15.611Z,23.38
2019-05-29T19:02:15.461Z,23.37
2019-05-29T19:07:19.313Z,23.38
2019-05-29T19:12:23.710Z,23.32
2019-05-29T19:17:28.015Z,23.42
2019-05-29T19:22:32.676Z,23.34
2019-05-29T19:27:41.595Z,23.35
2019-05-29T19:32:42.024Z,23.34
2019-05-29T19:37:45.571Z,23.33
2019-05-29T19:42:49.304Z,23.34
2019-05-29T19:47:53.070Z,23.36
2019-05-29T19:52:56.792Z,23.34
2019-05-29T19:58:00.443Z,23.35
2019-05-29T20:03:04.845Z,23.34
2019-05-29T20:08:08.873Z,23.36
2019-05-29T20:13:12.583Z,23.37
2019-05-29T20:18:16.317Z,23.34
2019-05-29T20:23:20.754Z,23.34
2019-05-29T20:28:24.670Z,23.30
2019-05-29T20:33:28.395Z,23.34
2019-05-29T20:38:33.116Z,23.30
2019-05-29T20:43:37.592Z,23.21
2019-05-29T20:48:41.316Z,23.23
2019-05-29T20:53:44.786Z,23.20
2019-05-29T20:58:48.484Z,23.28
2019-05-29T21:03:52.219Z,23.31
2019-05-29T21:08:56.004Z,23.33
2019-05-29T21:13:59.662Z,23.36
2019-05-29T21:19:03.623Z,23.38
2019-05-29T21:24:07.333Z,23.39
2019-05-29T21:29:10.910Z,23.43
2019-05-29T21:34:14.552Z,23.40
2019-05-29T21:39:18.194Z,23.39
2019-05-29T21:44:21.922Z,23.35
2019-05-29T21:49:25.474Z,23.38
2019-05-29T21:54:28.948Z,23.36
2019-05-29T21:59:32.569Z,23.33
2019-05-29T22:04:36.268Z,23.34
2019-05-29T22:09:40.023Z,23.33
2019-05-29T22:14:43.845Z,23.29
2019-05-29T22:19:47.761Z,23.30
2019-05-29T22:24:51.478Z,23.31
2019-05-29T22:29:55.363Z,23.29
2019-05-29T22:34:59.605Z,23.29
2019-05-29T22:40:05.200Z,23.29
2019-05-29T22:45:09.325Z,23.28
2019-05-29T22:50:13.319Z,23.29
2019-05-29T22:55:17.059Z,23.30
2019-05-29T23:00:21.826Z,23.29
2019-05-29T23:05:25.545Z,23.28
2019-05-29T23:10:29.405Z,23.26
2019-05-29T23:15:33.090Z,23.26
2019-05-29T23:20:36.702Z,23.26
2019-05-29T23:25:40.254Z,23.27
2019-05-29T23:30:44.181Z,23.25
2019-05-29T23:35:47.876Z,23.28
2019-05-29T23:40:51.600Z,23.26
2019-05-29T23:45:55.523Z,23.22
2019-05-29T23:50:59.583Z,23.20
2019-05-29T23:56:04.011Z,23.20
